createdAt,value
2022-11-14T00:01:27.004Z,87.78
2022-11-14T00:03:18.719Z,93.60
2022-11-14T00:05:11.101Z,71.43
2022-11-14T00:07:04.319Z,72.05
2022-11-14T00:08:56.035Z,102.00
2022-11-14T00:10:49.471Z,52.15
2022-11-14T00:12:41.128Z,60.40
2022-11-14T00:14:33.299Z,118.45
2022-11-14T00:16:25.238Z,56.30
2022-11-14T00:18:16.822Z,112.70
2022-11-14T00:20:10.526Z,52.60
2022-11-14T00:22:03.893Z,52.47
2022-11-14T00:23:55.857Z,42.28
2022-11-14T00:25:47.975Z,70.25
2022-11-14T00:27:39.722Z,59.60
2022-11-14T00:29:31.288Z,59.75
2022-11-14T00:31:23.617Z,57.08
2022-11-14T00:33:20.020Z,51.85
2022-11-14T00:35:11.745Z,89.60
2022-11-14T00:37:05.420Z,76.75
2022-11-14T00:38:57.412Z,39.60
2022-11-14T00:40:49.077Z,61.15
2022-11-14T00:42:40.760Z,72.53
2022-11-14T00:44:32.546Z,64.13
2022-11-14T00:46:23.938Z,62.00
2022-11-14T00:48:16.363Z,60.80
2022-11-14T00:50:08.905Z,109.13
2022-11-14T00:52:00.748Z,90.25
2022-11-14T00:53:53.975Z,115.05
2022-11-14T00:55:45.654Z,144.32
2022-11-14T00:57:37.413Z,72.82
2022-11-14T00:59:28.979Z,103.15
2022-11-14T01:01:21.051Z,79.13
2022-11-14T01:03:12.967Z,51.72
2022-11-14T01:05:05.428Z,88.55
2022-11-14T01:06:57.430Z,119.82
2022-11-14T01:08:52.030Z,102.18
2022-11-14T01:10:47.654Z,70.00
2022-11-14T01:12:39.373Z,85.25
2022-11-14T01:14:31.292Z,128.23
2022-11-14T01:16:23.319Z,94.45
2022-11-14T01:18:20.107Z,91.40
2022-11-14T01:20:12.218Z,129.77
2022-11-14T01:22:06.515Z,207.73
2022-11-14T01:23:58.337Z,109.90
2022-11-14T01:25:51.699Z,113.55
2022-11-14T01:27:43.260Z,159.65
2022-11-14T01:29:35.195Z,185.98
2022-11-14T01:31:27.068Z,138.13
2022-11-14T01:33:18.560Z,156.18
2022-11-14T01:35:10.317Z,109.07
2022-11-14T01:37:02.048Z,136.88
2022-11-14T01:38:54.570Z,71.28
2022-11-14T01:40:47.078Z,71.38
2022-11-14T01:42:40.276Z,65.50
2022-11-14T01:44:50.066Z,116.50
2022-11-14T01:46:46.713Z,91.88
2022-11-14T01:48:44.167Z,67.78
2022-11-14T01:50:36.292Z,58.92
2022-11-14T01:52:30.110Z,77.00
2022-11-14T01:54:28.669Z,55.85
2022-11-14T01:56:25.942Z,125.65
2022-11-14T01:58:19.139Z,150.55
2022-11-14T02:00:13.785Z,94.53
2022-11-14T02:02:11.443Z,172.90
2022-11-14T02:04:06.749Z,50.08
2022-11-14T02:05:59.624Z,75.97
2022-11-14T02:07:51.867Z,118.97
2022-11-14T02:09:47.113Z,94.65
2022-11-14T02:11:41.180Z,45.83
2022-11-14T02:13:34.232Z,234.68
2022-11-14T02:15:27.476Z,116.03
2022-11-14T02:17:35.746Z,120.93
2022-11-14T02:19:41.132Z,119.60
2022-11-14T02:21:34.710Z,178.10
2022-11-14T02:23:28.597Z,136.38
2022-11-14T02:25:20.380Z,394.67
2022-11-14T02:27:12.991Z,255.95
2022-11-14T02:29:04.611Z,78.25
2022-11-14T02:30:56.482Z,173.15
2022-11-14T02:33:09.947Z,118.18
2022-11-14T02:35:00.141Z,131.02
2022-11-14T02:36:53.243Z,113.05
2022-11-14T02:38:45.255Z,116.82
2022-11-14T02:40:37.180Z,137.93
2022-11-14T02:42:29.360Z,103.43
2022-11-14T02:44:21.446Z,62.75
2022-11-14T02:46:13.366Z,100.00
2022-11-14T02:48:05.926Z,80.03
2022-11-14T02:49:57.760Z,78.90
2022-11-14T02:51:49.568Z,62.00
2022-11-14T02:53:42.798Z,60.70
2022-11-14T02:55:34.738Z,43.90
2022-11-14T02:57:26.501Z,89.35
2022-11-14T02:59:18.482Z,44.20
2022-11-14T03:01:25.953Z,40.63
2022-11-14T03:03:17.531Z,63.35
2022-11-14T03:05:09.975Z,67.40
2022-11-14T03:07:01.880Z,47.38
2022-11-14T03:08:54.907Z,105.88
2022-11-14T03:10:46.772Z,33.97
2022-11-14T03:12:38.794Z,33.75
2022-11-14T03:14:32.408Z,62.63
2022-11-14T03:16:24.546Z,84.68
2022-11-14T03:18:16.336Z,97.75
2022-11-14T03:20:09.291Z,62.63
2022-11-14T03:22:01.083Z,69.68
2022-11-14T03:23:54.277Z,75.80
2022-11-14T03:25:46.032Z,68.18
2022-11-14T03:27:37.756Z,42.85
2022-11-14T03:29:29.283Z,82.60
2022-11-14T03:31:21.297Z,109.22
2022-11-14T03:33:12.979Z,44.25
2022-11-14T03:35:04.944Z,19.02
2022-11-14T03:36:56.794Z,171.30
2022-11-14T03:38:48.285Z,41.88
2022-11-14T03:40:42.552Z,68.35
2022-11-14T03:42:35.353Z,96.43
2022-11-14T03:44:26.866Z,104.22
2022-11-14T03:46:18.702Z,84.32
2022-11-14T03:48:10.396Z,64.57
2022-11-14T03:50:02.124Z,79.05
2022-11-14T03:51:54.953Z,106.60
2022-11-14T03:53:46.791Z,52.05
2022-11-14T03:55:38.979Z,71.32
2022-11-14T03:57:32.127Z,45.58
2022-11-14T03:59:23.645Z,61.00
2022-11-14T04:01:15.515Z,75.15
2022-11-14T04:03:07.453Z,77.82
2022-11-14T04:04:59.344Z,56.65
2022-11-14T04:06:51.447Z,59.80
2022-11-14T04:08:43.470Z,99.57
2022-11-14T04:10:35.089Z,87.63
2022-11-14T04:12:26.547Z,67.35
2022-11-14T04:14:19.747Z,100.90
2022-11-14T04:16:11.358Z,94.03
2022-11-14T04:18:03.445Z,78.63
2022-11-14T04:19:55.363Z,56.58
2022-11-14T04:21:47.254Z,73.97
2022-11-14T04:23:38.610Z,97.82
2022-11-14T04:25:30.721Z,100.18
2022-11-14T04:27:22.763Z,45.45
2022-11-14T04:29:14.562Z,46.53
2022-11-14T04:31:07.774Z,32.65
2022-11-14T04:32:59.814Z,50.10
2022-11-14T04:34:51.266Z,48.38
2022-11-14T04:36:43.192Z,50.95
2022-11-14T04:38:34.716Z,37.17
2022-11-14T04:40:26.877Z,35.50
2022-11-14T04:42:18.639Z,35.47
2022-11-14T04:44:10.671Z,21.13
2022-11-14T04:46:02.275Z,23.88
2022-11-14T04:47:55.698Z,27.67
2022-11-14T04:49:47.588Z,57.50
2022-11-14T04:51:39.596Z,28.63
2022-11-14T04:53:31.113Z,31.05
2022-11-14T04:55:22.808Z,38.38
2022-11-14T04:57:16.599Z,32.45
2022-11-14T04:59:08.387Z,33.30
2022-11-14T05:01:00.340Z,50.15
2022-11-14T05:02:52.689Z,42.00
2022-11-14T05:04:47.345Z,56.35
2022-11-14T05:06:39.119Z,73.60
2022-11-14T05:08:31.527Z,25.45
2022-11-14T05:10:23.445Z,29.75
2022-11-14T05:12:15.268Z,22.45
2022-11-14T05:14:06.827Z,70.75
2022-11-14T05:16:00.263Z,32.17
2022-11-14T05:17:52.271Z,39.42
2022-11-14T05:19:45.274Z,84.78
2022-11-14T05:21:37.109Z,35.78
2022-11-14T05:23:29.426Z,36.88
2022-11-14T05:25:21.679Z,54.13
2022-11-14T05:27:13.921Z,38.88
2022-11-14T05:29:05.922Z,46.80
2022-11-14T05:31:02.934Z,24.23
2022-11-14T05:32:54.567Z,45.85
2022-11-14T05:34:47.916Z,61.88
2022-11-14T05:36:39.577Z,47.58
2022-11-14T05:38:32.366Z,48.53
2022-11-14T05:40:24.270Z,44.20
2022-11-14T05:42:15.763Z,44.88
2022-11-14T05:44:08.092Z,47.15
2022-11-14T05:46:01.712Z,45.65
2022-11-14T05:47:54.996Z,27.83
2022-11-14T05:49:48.475Z,24.00
2022-11-14T05:51:39.968Z,35.35
2022-11-14T05:53:33.356Z,22.50
2022-11-14T05:55:25.366Z,79.88
2022-11-14T05:57:17.216Z,75.45
2022-11-14T05:59:09.016Z,51.33
2022-11-14T06:01:05.411Z,93.00
2022-11-14T06:02:57.912Z,65.05
2022-11-14T06:04:51.413Z,59.92
2022-11-14T06:06:43.060Z,74.32
2022-11-14T06:08:35.668Z,66.82
2022-11-14T06:10:27.642Z,52.67
2022-11-14T06:12:19.248Z,57.45
2022-11-14T06:14:11.457Z,43.30
2022-11-14T06:16:04.195Z,49.47
2022-11-14T06:17:55.980Z,82.95
2022-11-14T06:19:47.843Z,31.55
2022-11-14T06:21:40.945Z,46.83
2022-11-14T06:23:33.002Z,36.13
2022-11-14T06:25:25.140Z,44.90
2022-11-14T06:27:16.788Z,37.85
2022-11-14T06:29:08.799Z,38.72
2022-11-14T06:31:00.920Z,28.00
2022-11-14T06:32:58.437Z,29.20
2022-11-14T06:34:50.172Z,27.30
2022-11-14T06:36:43.047Z,20.23
2022-11-14T06:38:36.102Z,28.75
2022-11-14T06:40:27.839Z,65.80
2022-11-14T06:42:19.683Z,41.42
2022-11-14T06:44:11.384Z,37.20
2022-11-14T06:46:03.005Z,55.30
2022-11-14T06:47:55.002Z,37.28
2022-11-14T06:49:47.007Z,59.60
2022-11-14T06:51:38.428Z,52.30
2022-11-14T06:53:33.972Z,66.50
2022-11-14T06:55:25.824Z,40.10
2022-11-14T06:57:17.229Z,23.48
2022-11-14T06:59:09.299Z,28.13
2022-11-14T07:01:06.271Z,66.18
2022-11-14T07:02:58.025Z,54.92
2022-11-14T07:04:49.628Z,24.63
2022-11-14T07:06:41.139Z,25.52
2022-11-14T07:08:35.572Z,39.80
2022-11-14T07:10:27.639Z,25.02
2022-11-14T07:12:19.571Z,38.85
2022-11-14T07:14:11.050Z,20.60
2022-11-14T07:16:03.210Z,61.47
2022-11-14T07:17:55.329Z,26.55
2022-11-14T07:19:47.180Z,24.05
2022-11-14T07:21:39.234Z,35.47
2022-11-14T07:23:32.198Z,41.97
2022-11-14T07:25:25.138Z,34.05
2022-11-14T07:27:16.856Z,31.10
2022-11-14T07:29:09.115Z,18.33
2022-11-14T07:31:01.010Z,68.22
2022-11-14T07:32:57.274Z,42.80
2022-11-14T07:34:49.121Z,38.20
2022-11-14T07:36:41.397Z,32.78
2022-11-14T07:38:33.606Z,39.55
2022-11-14T07:40:27.250Z,28.05
2022-11-14T07:42:19.040Z,44.85
2022-11-14T07:44:10.892Z,27.38
2022-11-14T07:46:04.035Z,32.45
2022-11-14T07:47:57.436Z,39.15
2022-11-14T07:49:48.877Z,31.95
2022-11-14T07:51:41.068Z,39.10
2022-11-14T07:53:33.035Z,30.30
2022-11-14T07:55:26.866Z,22.85
2022-11-14T07:57:19.117Z,76.90
2022-11-14T07:59:11.023Z,55.05
2022-11-14T08:01:03.899Z,41.25
2022-11-14T08:02:55.324Z,64.00
2022-11-14T08:04:47.498Z,61.35
2022-11-14T08:06:39.567Z,32.78
2022-11-14T08:08:31.697Z,34.10
2022-11-14T08:10:24.016Z,39.08
2022-11-14T08:12:17.408Z,45.05
2022-11-14T08:14:09.291Z,52.55
2022-11-14T08:16:07.936Z,44.58
2022-11-14T08:18:03.903Z,42.13
2022-11-14T08:19:55.661Z,47.92
2022-11-14T08:21:47.261Z,51.05
2022-11-14T08:23:38.883Z,47.80
2022-11-14T08:25:30.929Z,45.58
2022-11-14T08:27:24.216Z,42.67
2022-11-14T08:29:16.043Z,39.90
2022-11-14T08:31:07.714Z,46.88
2022-11-14T08:33:02.446Z,46.25
2022-11-14T08:34:54.202Z,44.00
2022-11-14T08:36:46.179Z,40.70
2022-11-14T08:38:37.944Z,39.58
2022-11-14T08:40:30.354Z,33.85
2022-11-14T08:42:23.319Z,36.83
2022-11-14T08:44:15.119Z,34.83
2022-11-14T08:46:07.400Z,38.92
2022-11-14T08:47:58.906Z,50.88
2022-11-14T08:49:50.484Z,37.45
2022-11-14T08:51:42.277Z,43.83
2022-11-14T08:53:35.247Z,37.58
2022-11-14T08:55:26.966Z,40.78
2022-11-14T08:57:18.906Z,40.65
2022-11-14T08:59:12.228Z,35.42
2022-11-14T09:01:05.718Z,37.53
2022-11-14T09:02:57.675Z,40.63
2022-11-14T09:04:49.336Z,27.40
2022-11-14T09:06:41.107Z,46.88
2022-11-14T09:08:33.061Z,31.45
2022-11-14T09:10:24.960Z,54.03
2022-11-14T09:12:17.609Z,35.78
2022-11-14T09:14:09.316Z,43.35
2022-11-14T09:16:03.334Z,51.25
2022-11-14T09:17:55.173Z,46.45
2022-11-14T09:19:46.867Z,44.40
2022-11-14T09:21:38.705Z,55.70
2022-11-14T09:23:31.080Z,40.85
2022-11-14T09:25:23.282Z,82.10
2022-11-14T09:27:14.810Z,36.38
2022-11-14T09:29:06.778Z,38.80
2022-11-14T09:31:03.214Z,40.70
2022-11-14T09:32:59.890Z,38.05
2022-11-14T09:34:51.906Z,45.28
2022-11-14T09:36:43.432Z,41.28
2022-11-14T09:38:38.453Z,37.50
2022-11-14T09:40:32.850Z,34.75
2022-11-14T09:42:42.602Z,41.38
2022-11-14T09:44:50.385Z,37.05
2022-11-14T09:46:46.277Z,38.22
2022-11-14T09:48:38.383Z,32.72
2022-11-14T09:50:34.007Z,34.20
2022-11-14T09:52:32.472Z,32.42
2022-11-14T09:54:26.110Z,27.05
2022-11-14T09:56:24.774Z,29.33
2022-11-14T09:58:20.518Z,36.30
2022-11-14T10:00:17.987Z,35.47
2022-11-14T10:02:26.358Z,37.45
2022-11-14T10:04:25.848Z,32.92
2022-11-14T10:06:25.270Z,38.75
2022-11-14T10:08:30.026Z,39.08
2022-11-14T10:10:38.516Z,36.00
2022-11-14T10:12:38.059Z,42.25
2022-11-14T10:15:00.996Z,35.30
2022-11-14T10:17:10.206Z,32.88
2022-11-14T10:19:18.323Z,17.98
2022-11-14T10:21:23.762Z,20.30
2022-11-14T10:23:31.570Z,21.15
2022-11-14T10:25:28.040Z,18.20
2022-11-14T10:27:21.855Z,20.88
2022-11-14T10:29:39.707Z,19.55
2022-11-14T10:31:45.463Z,20.35
2022-11-14T10:33:47.806Z,18.33
2022-11-14T10:35:43.947Z,28.63
2022-11-14T10:37:41.772Z,19.95
2022-11-14T10:39:40.265Z,22.42
2022-11-14T10:41:56.002Z,23.75
2022-11-14T10:43:47.873Z,21.70
2022-11-14T10:45:44.561Z,19.80
2022-11-14T10:47:41.510Z,23.85
2022-11-14T10:49:37.072Z,18.92
2022-11-14T10:51:35.397Z,23.02
2022-11-14T10:53:34.633Z,21.77
2022-11-14T10:55:57.421Z,19.98
2022-11-14T10:57:38.097Z,23.27
2022-11-14T10:59:30.394Z,18.65
2022-11-14T11:01:37.492Z,19.38
2022-11-14T11:03:43.632Z,21.23
2022-11-14T11:05:47.063Z,18.55
2022-11-14T11:08:21.439Z,25.70
2022-11-14T11:10:41.552Z,20.67
2022-11-14T11:12:46.103Z,19.45
2022-11-14T11:14:38.107Z,17.95
2022-11-14T11:16:31.881Z,21.42
2022-11-14T11:18:30.413Z,18.85
2022-11-14T11:20:29.554Z,20.00
2022-11-14T11:22:37.593Z,18.05
2022-11-14T11:24:36.055Z,18.15
2022-11-14T11:26:30.281Z,21.83
2022-11-14T11:28:23.441Z,21.80
2022-11-14T11:30:23.192Z,14.10
2022-11-14T11:32:27.768Z,14.27
2022-11-14T11:34:24.518Z,15.70
2022-11-14T11:36:20.816Z,14.05
2022-11-14T11:38:15.860Z,18.30
2022-11-14T11:40:16.946Z,14.68
2022-11-14T11:42:15.660Z,18.83
2022-11-14T11:44:13.067Z,20.42
2022-11-14T11:46:22.516Z,16.65
2022-11-14T11:48:19.273Z,18.40
2022-11-14T11:50:17.118Z,14.80
2022-11-14T11:52:14.819Z,13.98
2022-11-14T11:54:15.343Z,15.90
2022-11-14T11:56:13.634Z,17.73
2022-11-14T11:58:12.863Z,16.75
2022-11-14T12:00:09.173Z,17.15
2022-11-14T12:02:02.064Z,19.20
2022-11-14T12:03:55.562Z,16.73
2022-11-14T12:05:53.592Z,15.32
2022-11-14T12:07:52.749Z,23.42
2022-11-14T12:12:04.988Z,14.93
2022-11-14T12:14:31.686Z,17.27
2022-11-14T12:16:37.106Z,14.90
2022-11-14T12:18:55.991Z,16.40
2022-11-14T12:20:57.277Z,17.00
2022-11-14T12:23:05.002Z,14.15
2022-11-14T12:25:31.077Z,18.35
2022-11-14T12:27:37.232Z,18.67
2022-11-14T12:29:55.071Z,15.95
2022-11-14T12:31:47.996Z,19.67
2022-11-14T12:33:45.315Z,58.53
2022-11-14T12:35:39.648Z,19.27
2022-11-14T12:37:35.786Z,17.65
2022-11-14T12:39:29.340Z,17.23
2022-11-14T12:41:26.492Z,16.33
2022-11-14T12:43:37.215Z,14.35
2022-11-14T12:46:00.368Z,21.05
2022-11-14T12:48:16.796Z,19.33
2022-11-14T12:50:42.520Z,34.17
2022-11-14T12:52:54.127Z,20.95
2022-11-14T12:54:49.243Z,22.00
2022-11-14T12:56:59.585Z,29.33
2022-11-14T12:59:29.923Z,18.90
2022-11-14T13:01:32.644Z,17.08
2022-11-14T13:03:39.679Z,15.02
2022-11-14T13:05:50.745Z,17.92
2022-11-14T13:07:51.603Z,13.35
2022-11-14T13:10:00.731Z,15.05
2022-11-14T13:12:09.943Z,14.57
2022-11-14T13:14:21.764Z,18.08
2022-11-14T13:16:44.153Z,17.58
2022-11-14T13:18:59.184Z,16.70
2022-11-14T13:21:20.588Z,19.65
2022-11-14T13:23:49.804Z,14.35
2022-11-14T13:25:41.766Z,16.00
2022-11-14T13:28:05.392Z,19.67
2022-11-14T13:29:51.026Z,16.45
2022-11-14T13:31:51.681Z,14.32
2022-11-14T13:33:45.370Z,17.10
2022-11-14T13:35:53.037Z,18.10
2022-11-14T13:38:03.109Z,20.88
2022-11-14T13:40:05.678Z,22.05
2022-11-14T13:42:18.749Z,22.95
2022-11-14T13:44:46.765Z,28.67
2022-11-14T13:46:55.926Z,24.70
2022-11-14T13:49:09.115Z,19.25
2022-11-14T13:51:21.779Z,21.83
2022-11-14T13:53:23.933Z,16.80
2022-11-14T13:55:24.166Z,18.55
2022-11-14T13:57:26.042Z,22.38
2022-11-14T13:59:49.579Z,22.25
2022-11-14T14:02:02.334Z,21.67
2022-11-14T14:04:12.736Z,23.13
2022-11-14T14:06:28.370Z,23.95
2022-11-14T14:08:30.981Z,21.77
2022-11-14T14:10:29.154Z,14.48
2022-11-14T14:12:44.305Z,20.67
2022-11-14T14:14:57.076Z,18.70
2022-11-14T14:16:58.336Z,18.48
2022-11-14T14:18:59.787Z,15.65
2022-11-14T14:20:59.603Z,16.13
2022-11-14T14:23:01.350Z,17.25
2022-11-14T14:25:01.685Z,16.90
2022-11-14T14:27:05.844Z,14.57
2022-11-14T14:29:06.327Z,16.35
2022-11-14T14:31:12.753Z,17.77
2022-11-14T14:33:12.933Z,16.45
2022-11-14T14:35:25.473Z,15.63
2022-11-14T14:37:22.637Z,16.83
2022-11-14T14:39:19.078Z,28.33
2022-11-14T14:41:14.243Z,23.50
2022-11-14T14:43:07.837Z,23.73
2022-11-14T14:44:59.718Z,27.08
2022-11-14T14:46:52.602Z,23.33
2022-11-14T14:48:46.127Z,21.92
2022-11-14T14:50:41.847Z,19.10
2022-11-14T14:52:36.835Z,19.92
2022-11-14T14:54:30.914Z,20.98
2022-11-14T14:56:25.186Z,19.38
2022-11-14T14:58:24.919Z,22.52
2022-11-14T15:00:26.107Z,16.90
2022-11-14T15:02:19.857Z,19.38
2022-11-14T15:04:17.244Z,17.90
2022-11-14T15:06:29.940Z,20.25
2022-11-14T15:08:21.558Z,15.57
2022-11-14T15:10:23.716Z,17.50
2022-11-14T15:12:15.883Z,14.18
2022-11-14T15:14:12.007Z,16.70
2022-11-14T15:16:04.927Z,27.92
2022-11-14T15:17:58.816Z,20.77
2022-11-14T15:19:54.296Z,20.42
2022-11-14T15:21:45.933Z,24.98
2022-11-14T15:23:39.619Z,19.45
2022-11-14T15:25:31.704Z,22.42
2022-11-14T15:27:23.183Z,16.33
2022-11-14T15:29:19.650Z,17.00
2022-11-14T15:31:20.102Z,13.82
2022-11-14T15:33:28.707Z,11.77
2022-11-14T15:35:31.122Z,16.45
2022-11-14T15:37:24.465Z,19.40
2022-11-14T15:39:28.015Z,15.57
2022-11-14T15:41:21.955Z,15.52
2022-11-14T15:43:39.228Z,17.85
2022-11-14T15:45:41.268Z,25.27
2022-11-14T15:47:40.225Z,18.52
2022-11-14T15:49:31.701Z,23.88
2022-11-14T15:51:44.690Z,26.33
2022-11-14T15:53:39.287Z,17.67
2022-11-14T15:55:31.300Z,17.60
2022-11-14T15:57:23.481Z,17.08
2022-11-14T15:59:15.041Z,13.65
2022-11-14T16:01:14.844Z,24.08
2022-11-14T16:03:13.008Z,15.32
2022-11-14T16:05:05.740Z,15.13
2022-11-14T16:06:58.796Z,18.48
2022-11-14T16:08:50.774Z,18.70
2022-11-14T16:10:42.763Z,15.93
2022-11-14T16:12:34.710Z,10.70
2022-11-14T16:14:26.545Z,13.27
2022-11-14T16:16:18.424Z,14.57
2022-11-14T16:18:12.943Z,14.13
2022-11-14T16:20:06.256Z,19.73
2022-11-14T16:22:02.990Z,22.77
2022-11-14T16:23:55.148Z,19.40
2022-11-14T16:25:46.846Z,21.70
2022-11-14T16:27:38.949Z,23.38
2022-11-14T16:29:30.868Z,33.45
2022-11-14T16:31:22.392Z,30.73
2022-11-14T16:33:14.112Z,21.00
2022-11-14T16:35:05.938Z,26.70
2022-11-14T16:37:03.593Z,20.80
2022-11-14T16:39:01.257Z,16.63
2022-11-14T16:40:53.232Z,17.27
2022-11-14T16:42:45.605Z,14.02
2022-11-14T16:44:41.967Z,12.18
2022-11-14T16:46:35.548Z,14.50
2022-11-14T16:48:27.414Z,17.10
2022-11-14T16:50:20.571Z,17.30
2022-11-14T16:52:15.246Z,13.68
2022-11-14T16:54:07.182Z,12.02
2022-11-14T16:55:59.219Z,14.10
2022-11-14T16:57:50.809Z,11.73
2022-11-14T16:59:42.414Z,14.48
2022-11-14T17:01:33.920Z,21.45
2022-11-14T17:03:25.585Z,16.13
2022-11-14T17:05:17.496Z,15.93
2022-11-14T17:07:09.768Z,12.55
2022-11-14T17:09:03.409Z,12.30
2022-11-14T17:10:55.159Z,9.52
2022-11-14T17:12:46.985Z,9.80
2022-11-14T17:14:39.119Z,10.10
2022-11-14T17:16:31.031Z,12.90
2022-11-14T17:18:22.788Z,12.82
2022-11-14T17:20:14.642Z,19.92
2022-11-14T17:22:06.605Z,20.40
2022-11-14T17:24:00.557Z,16.40
2022-11-14T17:25:53.770Z,12.10
2022-11-14T17:27:48.961Z,22.45
2022-11-14T17:29:41.425Z,21.00
2022-11-14T17:31:37.865Z,19.17
2022-11-14T17:33:31.122Z,12.38
2022-11-14T17:35:23.307Z,14.80
2022-11-14T17:37:15.309Z,17.17
2022-11-14T17:39:07.459Z,19.98
2022-11-14T17:41:01.193Z,21.70
2022-11-14T17:42:54.227Z,26.05
2022-11-14T17:44:46.034Z,28.98
2022-11-14T17:46:38.125Z,18.30
2022-11-14T17:48:30.198Z,22.45
2022-11-14T17:50:22.281Z,16.98
2022-11-14T17:52:13.982Z,18.33
2022-11-14T17:54:05.807Z,16.48
2022-11-14T17:55:58.308Z,12.00
2022-11-14T17:57:51.602Z,12.80
2022-11-14T17:59:43.174Z,15.38
2022-11-14T18:01:35.114Z,17.23
2022-11-14T18:03:27.736Z,14.88
2022-11-14T18:05:19.569Z,15.75
2022-11-14T18:07:11.412Z,19.83
2022-11-14T18:09:05.190Z,21.55
2022-11-14T18:11:01.218Z,25.65
2022-11-14T18:12:54.269Z,25.95
2022-11-14T18:14:46.090Z,43.97
2022-11-14T18:17:05.377Z,32.45
2022-11-14T18:18:51.381Z,31.95
2022-11-14T18:20:43.548Z,21.20
2022-11-14T18:22:35.094Z,23.25
2022-11-14T18:24:26.717Z,28.27
2022-11-14T18:26:21.102Z,25.48
2022-11-14T18:28:14.539Z,22.15
2022-11-14T18:30:39.247Z,23.75
2022-11-14T18:32:19.354Z,20.02
2022-11-14T18:34:11.428Z,19.65
2022-11-14T18:36:05.025Z,18.23
2022-11-14T18:37:57.149Z,17.73
2022-11-14T18:39:49.321Z,22.77
2022-11-14T18:41:40.836Z,24.85
2022-11-14T18:43:34.486Z,32.88
2022-11-14T18:45:26.563Z,21.13
2022-11-14T18:47:19.029Z,22.17
2022-11-14T18:49:11.312Z,17.52
2022-11-14T18:51:03.799Z,22.00
2022-11-14T18:52:55.389Z,19.65
2022-11-14T18:54:47.325Z,25.63
2022-11-14T18:56:39.421Z,21.73
2022-11-14T18:58:31.310Z,21.45
2022-11-14T19:00:24.990Z,21.77
2022-11-14T19:02:17.157Z,17.58
2022-11-14T19:04:10.674Z,25.92
2022-11-14T19:06:03.617Z,19.02
2022-11-14T19:07:55.248Z,17.75
2022-11-14T19:09:47.250Z,18.35
2022-11-14T19:11:56.993Z,20.65
2022-11-14T19:13:49.301Z,30.65
2022-11-14T19:15:42.748Z,21.33
2022-11-14T19:17:34.729Z,25.63
2022-11-14T19:19:26.758Z,22.17
2022-11-14T19:21:18.968Z,20.77
2022-11-14T19:23:10.406Z,44.00
2022-11-14T19:25:03.469Z,45.05
2022-11-14T19:26:57.076Z,29.90
2022-11-14T19:28:49.343Z,17.65
2022-11-14T19:30:42.821Z,19.85
2022-11-14T19:32:35.018Z,24.63
2022-11-14T19:34:26.916Z,23.25
2022-11-14T19:36:45.287Z,24.73
2022-11-14T19:38:33.304Z,26.52
2022-11-14T19:40:26.123Z,23.75
2022-11-14T19:42:17.942Z,24.85
2022-11-14T19:44:09.587Z,24.48
2022-11-14T19:46:04.444Z,24.90
2022-11-14T19:47:56.119Z,21.02
2022-11-14T19:49:48.139Z,64.75
2022-11-14T19:51:39.783Z,45.53
2022-11-14T19:53:32.000Z,36.55
2022-11-14T19:55:24.041Z,35.30
2022-11-14T19:57:16.090Z,34.78
2022-11-14T19:59:13.756Z,30.65
2022-11-14T20:01:10.513Z,36.50
2022-11-14T20:03:02.091Z,26.40
2022-11-14T20:04:53.934Z,25.02
2022-11-14T20:06:46.066Z,22.13
2022-11-14T20:08:38.019Z,24.05
2022-11-14T20:10:29.518Z,21.02
2022-11-14T20:12:21.409Z,17.92
2022-11-14T20:14:13.800Z,19.10
2022-11-14T20:16:11.668Z,19.35
2022-11-14T20:18:03.762Z,17.65
2022-11-14T20:19:55.534Z,21.73
2022-11-14T20:21:47.759Z,18.50
2022-11-14T20:23:39.962Z,23.38
2022-11-14T20:25:31.603Z,24.50
2022-11-14T20:27:23.276Z,20.73
2022-11-14T20:29:14.888Z,18.92
2022-11-14T20:31:08.859Z,21.50
2022-11-14T20:33:02.440Z,20.38
2022-11-14T20:34:54.016Z,22.98
2022-11-14T20:37:09.780Z,17.90
2022-11-14T20:38:59.690Z,30.98
2022-11-14T20:40:55.844Z,23.85
2022-11-14T20:42:48.936Z,22.20
2022-11-14T20:44:40.767Z,22.13
2022-11-14T20:46:32.843Z,18.05
2022-11-14T20:48:27.148Z,18.08
2022-11-14T20:50:19.046Z,16.88
2022-11-14T20:52:10.869Z,16.23
2022-11-14T20:54:03.334Z,16.92
2022-11-14T20:55:55.003Z,19.67
2022-11-14T20:57:47.030Z,24.88
2022-11-14T20:59:39.042Z,25.42
2022-11-14T21:01:30.504Z,23.20
2022-11-14T21:03:22.923Z,28.27
2022-11-14T21:05:16.370Z,25.85
2022-11-14T21:07:08.128Z,20.60
2022-11-14T21:09:00.193Z,18.75
2022-11-14T21:10:58.442Z,15.40
2022-11-14T21:13:10.334Z,20.92
2022-11-14T21:15:01.997Z,25.13
2022-11-14T21:16:54.006Z,19.83
2022-11-14T21:18:48.110Z,21.60
2022-11-14T21:20:41.582Z,19.38
2022-11-14T21:22:32.999Z,20.50
2022-11-14T21:24:24.706Z,27.65
2022-11-14T21:26:17.862Z,28.40
2022-11-14T21:28:09.766Z,25.83
2022-11-14T21:30:01.839Z,24.63
2022-11-14T21:31:54.692Z,22.85
2022-11-14T21:33:47.186Z,20.33
2022-11-14T21:35:39.180Z,19.00
2022-11-14T21:37:32.124Z,25.90
2022-11-14T21:39:23.900Z,25.13
2022-11-14T21:41:17.533Z,24.05
2022-11-14T21:43:08.939Z,22.48
2022-11-14T21:45:00.616Z,25.67
2022-11-14T21:46:52.065Z,18.58
2022-11-14T21:48:44.674Z,20.52
2022-11-14T21:50:36.531Z,16.83
2022-11-14T21:52:28.343Z,20.67
2022-11-14T21:54:21.058Z,24.98
2022-11-14T21:56:14.812Z,21.48
2022-11-14T21:58:06.690Z,20.55
2022-11-14T21:59:58.653Z,26.00
2022-11-14T22:02:21.362Z,27.52
2022-11-14T22:04:15.774Z,25.55
2022-11-14T22:06:07.730Z,28.00
2022-11-14T22:07:59.307Z,30.75
2022-11-14T22:09:52.671Z,36.65
2022-11-14T22:11:44.372Z,35.35
2022-11-14T22:13:35.903Z,28.95
2022-11-14T22:15:28.962Z,23.38
2022-11-14T22:17:20.635Z,20.88
2022-11-14T22:19:12.447Z,26.10
2022-11-14T22:21:04.398Z,22.67
2022-11-14T22:22:56.560Z,21.65
2022-11-14T22:24:48.396Z,21.65
2022-11-14T22:26:41.775Z,22.30
2022-11-14T22:28:33.457Z,20.63
2022-11-14T22:30:24.846Z,23.88
2022-11-14T22:32:16.909Z,25.38
2022-11-14T22:34:08.415Z,24.80
2022-11-14T22:36:07.892Z,22.02
2022-11-14T22:37:59.936Z,19.70
2022-11-14T22:39:51.715Z,18.90
2022-11-14T22:41:44.696Z,30.35
2022-11-14T22:43:36.503Z,19.45
2022-11-14T22:45:28.543Z,19.95
2022-11-14T22:47:20.564Z,22.05
2022-11-14T22:49:16.024Z,20.67
2022-11-14T22:51:13.457Z,16.48
2022-11-14T22:53:04.954Z,20.90
2022-11-14T22:54:57.037Z,17.00
2022-11-14T22:56:50.164Z,9.65
2022-11-14T22:58:43.731Z,12.57
2022-11-14T23:00:35.484Z,15.38
2022-11-14T23:02:27.364Z,16.92
2022-11-14T23:04:19.495Z,16.58
2022-11-14T23:06:13.148Z,17.58
2022-11-14T23:08:05.517Z,14.95
2022-11-14T23:09:57.585Z,17.40
2022-11-14T23:11:50.663Z,14.85
2022-11-14T23:13:44.506Z,17.25
2022-11-14T23:15:37.313Z,16.00
2022-11-14T23:17:28.805Z,13.75
2022-11-14T23:19:20.273Z,18.17
2022-11-14T23:21:14.507Z,15.50
2022-11-14T23:23:06.029Z,19.15
2022-11-14T23:24:57.754Z,17.73
2022-11-14T23:26:50.972Z,18.00
2022-11-14T23:28:42.995Z,17.67
2022-11-14T23:30:36.229Z,19.08
2022-11-14T23:32:28.314Z,22.38
2022-11-14T23:34:19.741Z,15.35
2022-11-14T23:36:11.726Z,18.98
2022-11-14T23:38:05.089Z,17.00
2022-11-14T23:39:56.858Z,16.38
2022-11-14T23:41:50.282Z,16.45
2022-11-14T23:43:42.042Z,17.75
2022-11-14T23:45:33.786Z,16.95
2022-11-14T23:47:25.786Z,12.48
2022-11-14T23:49:17.614Z,15.35
2022-11-14T23:51:10.774Z,14.15
2022-11-14T23:53:02.687Z,17.40
2022-11-14T23:54:54.156Z,20.08
2022-11-14T23:56:46.034Z,17.02
2022-11-14T23:58:38.967Z,16.10
